Airfield :
LOGIN :

Register | Disclaimer

   EN    FR    IT 

 










Legend :    VFR   Marginal VFR   IFR   Intensive IFR   Very Intensive IFR
Visi :
Ceiling :
>= 8 km
>= 3000ft
5 to 8 km
1000 to 3000 ft
1500m to 5 km
500 to 1000 ft
800 to 1500m
200 to 500 ft
< 800m
< 200 ft
Symbols :   Thunderstorms  Fog  Heavy snow  Heavy precipitations  Wind > 20 kt
SIGMETs :     Misc.  Thunderstorms  Icing  Turbulence  Mountain Waves  Volcanic Ashes






- Airport Elevation : 364 ft
- IATA code : FRA


EDDF - Frankfurt Int.

CURRENT METAR :
  • 081420Z VRB04KT CAVOK 36/13 Q1018 NOSIG

EXPIRED METARs :
  • 081350Z VRB04KT CAVOK 36/13 Q1018 NOSIG
  • 081320Z 12005KT 360V160 CAVOK 36/13 Q1018 NOSIG
  • 081250Z VRB03KT CAVOK 35/13 Q1018 NOSIG
  • 081220Z 31005KT 220V010 CAVOK 34/13 Q1019 NOSIG
  • 081150Z VRB05KT CAVOK 35/13 Q1019 NOSIG

TAF TAF EDDF
Valid from the 08 at 12:00 until the 09 at 18:00 UTC


081100Z 0812/0918 25005KT CAVOK
TEMPO 0812/0818 05005KT
BECMG 0818/0820 05004KT
BECMG 0909/0911 22005KT



MET'MAP, your aeronautical weather chart ! - Copyright ORBIFLY December 2007 - Disclaimer

ORBIFLY MET'MAP TEAM :

Programming & Development : Alexandra Zaïnal
Concept & original design : Baudouin d'Aumeries
Assistance for programming : Marc-Olivier Méhu
Technical & hardware support : Manuel Goepfert

Contact : metmap@orbifly.com




SOURCES & CREDITS :

   NOAA